Hoene Spring, Missouri
Current Conditions -  °F | °C
As of 4:54 PM on Thursday 20 Nov 2014 (Local Time) from KSUS Reporting Station
Few Clouds Few Clouds  
Wind Chill: 31°   Ceiling: Unl
Heat Index: 31°   Visibility: 10mi
Dew Point: 20°   Wind: 0mph
Humidity: 64%   Direction: NA
Pressure: 30.22"   Gusts: NA
Location:  38.5081°N, 90.6523°W
Report Text: KSUS 202254Z 00000KT 10SM FEW090 M01/M07 A3022 RMK AO2 SLP245 T10061067
Loading
Personal Weather Stations






























Interactive Weather Map New forecast layout! Learn more

10-Day Weather Forecast

Advertisements
Track Severe Weather on mobile